createdAt,value
2022-09-25T00:01:39.452Z,101183.75
2022-09-25T00:04:06.255Z,101184.72
2022-09-25T00:06:35.542Z,101183.16
2022-09-25T00:09:02.299Z,101184.66
2022-09-25T00:11:31.673Z,101188.06
2022-09-25T00:13:59.639Z,101184.84
2022-09-25T00:16:29.509Z,101195.13
2022-09-25T00:19:16.145Z,101186.06
2022-09-25T00:21:43.292Z,101190.78
2022-09-25T00:24:10.934Z,101190.78
2022-09-25T00:26:41.062Z,101189.50
2022-09-25T00:29:09.208Z,101184.31
2022-09-25T00:31:35.624Z,101192.06
2022-09-25T00:34:04.321Z,101187.97
2022-09-25T00:36:31.340Z,101187.13
2022-09-25T00:38:58.253Z,101180.59
2022-09-25T00:41:27.173Z,101179.06
2022-09-25T00:43:56.290Z,101177.22
2022-09-25T00:46:28.151Z,101184.31
2022-09-25T00:49:07.531Z,101171.97
2022-09-25T00:51:38.843Z,101181.56
2022-09-25T00:54:07.177Z,101181.22
2022-09-25T00:56:38.591Z,101178.88
2022-09-25T00:59:05.636Z,101183.75
2022-09-25T01:01:32.196Z,101185.50
2022-09-25T01:03:59.633Z,101187.88
2022-09-25T01:06:26.570Z,101181.47
2022-09-25T01:08:53.128Z,101188.19
2022-09-25T01:11:19.531Z,101186.84
2022-09-25T01:13:46.096Z,101182.50
2022-09-25T01:16:17.964Z,101187.47
2022-09-25T01:18:53.468Z,101182.97
2022-09-25T01:21:45.149Z,101195.00
2022-09-25T01:24:21.027Z,101187.22
2022-09-25T01:27:11.510Z,101178.66
2022-09-25T01:30:00.068Z,101184.09
2022-09-25T01:32:37.039Z,101182.00
2022-09-25T01:35:19.249Z,101187.00
2022-09-25T01:37:52.919Z,101190.66
2022-09-25T01:40:33.533Z,101189.50
2022-09-25T01:43:19.195Z,101192.16
2022-09-25T01:45:51.884Z,101195.16
2022-09-25T01:48:21.518Z,101190.00
2022-09-25T01:51:10.852Z,101191.13
2022-09-25T01:53:45.773Z,101194.53
2022-09-25T01:56:20.002Z,101197.16
2022-09-25T01:58:50.707Z,101189.97
2022-09-25T02:01:23.084Z,101193.28
2022-09-25T02:04:00.195Z,101193.28
2022-09-25T02:06:26.809Z,101195.38
2022-09-25T02:09:01.184Z,101196.28
2022-09-25T02:11:37.378Z,101191.09
2022-09-25T02:14:10.691Z,101194.91
2022-09-25T02:16:43.886Z,101197.47
2022-09-25T02:19:34.740Z,101199.03
2022-09-25T02:22:20.609Z,101196.13
2022-09-25T02:24:57.993Z,101192.91
2022-09-25T02:27:27.546Z,101199.66
2022-09-25T02:29:55.277Z,101184.38
2022-09-25T02:32:25.671Z,101182.88
2022-09-25T02:34:52.369Z,101192.47
2022-09-25T02:37:18.862Z,101186.63
2022-09-25T02:39:48.298Z,101182.13
2022-09-25T02:42:29.715Z,101175.06
2022-09-25T02:45:17.484Z,101185.81
2022-09-25T02:48:10.286Z,101178.25
2022-09-25T02:51:04.899Z,101186.13
2022-09-25T02:53:41.707Z,101180.13
2022-09-25T02:56:43.528Z,101184.75
2022-09-25T02:59:16.658Z,101189.63
2022-09-25T03:01:43.640Z,101183.50
2022-09-25T03:04:11.238Z,101185.75
2022-09-25T03:06:38.477Z,101185.13
2022-09-25T03:09:05.586Z,101189.63
2022-09-25T03:11:32.023Z,101194.16
2022-09-25T03:14:03.519Z,101187.59
2022-09-25T03:16:46.578Z,101185.50
2022-09-25T03:19:14.042Z,101183.91
2022-09-25T03:21:40.497Z,101182.47
2022-09-25T03:24:06.954Z,101188.44
2022-09-25T03:26:33.850Z,101180.34
2022-09-25T03:29:02.311Z,101178.88
2022-09-25T03:31:29.959Z,101180.13
2022-09-25T03:33:56.692Z,101178.88
2022-09-25T03:36:25.200Z,101184.41
2022-09-25T03:38:53.737Z,101180.38
2022-09-25T03:41:22.113Z,101172.75
2022-09-25T03:43:51.470Z,101178.13
2022-09-25T03:46:22.231Z,101175.53
2022-09-25T03:48:48.841Z,101174.66
2022-09-25T03:51:15.319Z,101173.00
2022-09-25T03:53:41.736Z,101173.06
2022-09-25T03:56:11.567Z,101173.38
2022-09-25T03:58:37.941Z,101169.94
2022-09-25T04:01:04.897Z,101172.00
2022-09-25T04:03:32.741Z,101171.25
2022-09-25T04:06:01.216Z,101172.38
2022-09-25T04:08:28.179Z,101168.31
2022-09-25T04:10:56.498Z,101165.97
2022-09-25T04:13:23.824Z,101168.66
2022-09-25T04:15:51.701Z,101164.31
2022-09-25T04:18:18.874Z,101166.19
2022-09-25T04:20:45.441Z,101160.31
2022-09-25T04:23:12.026Z,101164.38
2022-09-25T04:25:38.426Z,101165.47
2022-09-25T04:28:05.302Z,101164.06
2022-09-25T04:30:31.690Z,101162.16
2022-09-25T04:33:16.651Z,101159.03
2022-09-25T04:35:43.095Z,101159.25
2022-09-25T04:38:09.804Z,101157.84
2022-09-25T04:40:37.190Z,101166.47
2022-09-25T04:43:05.021Z,101167.53
2022-09-25T04:45:33.517Z,101173.84
2022-09-25T04:48:00.522Z,101177.59
2022-09-25T04:50:28.108Z,101172.88
2022-09-25T04:52:54.720Z,101163.53
2022-09-25T04:55:24.293Z,101167.41
2022-09-25T04:57:59.590Z,101161.72
2022-09-25T05:00:29.394Z,101160.19
2022-09-25T05:02:56.254Z,101166.03
2022-09-25T05:05:22.870Z,101157.31
2022-09-25T05:07:54.108Z,101158.72
2022-09-25T05:10:21.783Z,101159.22
2022-09-25T05:12:48.421Z,101158.34
2022-09-25T05:15:15.312Z,101165.63
2022-09-25T05:17:41.821Z,101165.41
2022-09-25T05:20:09.536Z,101160.06
2022-09-25T05:22:35.934Z,101162.56
2022-09-25T05:25:02.375Z,101154.88
2022-09-25T05:27:28.765Z,101155.16
2022-09-25T05:29:55.144Z,101151.91
2022-09-25T05:32:22.916Z,101159.66
2022-09-25T05:34:49.348Z,101159.53
2022-09-25T05:37:15.714Z,101158.44
2022-09-25T05:39:42.115Z,101170.97
2022-09-25T05:42:08.984Z,101160.34
2022-09-25T05:44:35.504Z,101163.69
2022-09-25T05:47:03.834Z,101158.34
2022-09-25T05:49:30.251Z,101159.00
2022-09-25T05:51:56.631Z,101167.06
2022-09-25T05:54:23.113Z,101164.59
2022-09-25T05:56:49.660Z,101163.44
2022-09-25T05:59:16.059Z,101159.66
2022-09-25T06:01:42.483Z,101160.91
2022-09-25T06:04:10.113Z,101167.72
2022-09-25T06:06:36.518Z,101165.47
2022-09-25T06:09:03.159Z,101170.72
2022-09-25T06:11:31.586Z,101164.78
2022-09-25T06:13:57.997Z,101168.91
2022-09-25T06:16:24.461Z,101166.00
2022-09-25T06:18:52.430Z,101163.19
2022-09-25T06:21:18.799Z,101159.56
2022-09-25T06:23:45.648Z,101166.66
2022-09-25T06:26:12.869Z,101166.41
2022-09-25T06:28:39.513Z,101162.22
2022-09-25T06:31:06.009Z,101162.22
2022-09-25T06:33:32.939Z,101162.47
2022-09-25T06:36:00.501Z,101163.47
2022-09-25T06:38:27.275Z,101169.06
2022-09-25T06:40:54.125Z,101169.84
2022-09-25T06:43:22.486Z,101168.25
2022-09-25T06:45:51.216Z,101171.69
2022-09-25T06:48:18.154Z,101175.34
2022-09-25T06:50:55.859Z,101173.22
2022-09-25T06:53:24.173Z,101169.97
2022-09-25T06:55:51.013Z,101170.63
2022-09-25T06:58:19.793Z,101177.03
2022-09-25T07:00:50.733Z,101180.56
2022-09-25T07:03:35.921Z,101180.91
2022-09-25T07:06:03.818Z,101186.28
2022-09-25T07:08:31.025Z,101178.41
2022-09-25T07:10:58.577Z,101186.00
2022-09-25T07:13:28.708Z,101191.81
2022-09-25T07:15:56.771Z,101190.72
2022-09-25T07:18:24.400Z,101176.72
2022-09-25T07:20:51.602Z,101194.13
2022-09-25T07:23:19.289Z,101186.06
2022-09-25T07:25:46.580Z,101191.28
2022-09-25T07:28:14.436Z,101193.53
2022-09-25T07:30:41.900Z,101193.41
2022-09-25T07:33:08.772Z,101195.03
2022-09-25T07:35:36.087Z,101202.03
2022-09-25T07:38:02.546Z,101200.34
2022-09-25T07:40:29.407Z,101195.00
2022-09-25T07:43:00.135Z,101199.50
2022-09-25T07:45:26.631Z,101200.72
2022-09-25T07:47:57.547Z,101198.72
2022-09-25T07:50:24.166Z,101193.06
2022-09-25T07:52:50.615Z,101196.91
2022-09-25T07:55:18.357Z,101190.91
2022-09-25T07:57:45.310Z,101190.22
2022-09-25T08:00:12.846Z,101187.28
2022-09-25T08:02:39.415Z,101189.47
2022-09-25T08:05:06.424Z,101194.72
2022-09-25T08:07:32.957Z,101197.13
2022-09-25T08:09:59.363Z,101195.84
2022-09-25T08:12:25.853Z,101198.03
2022-09-25T08:14:52.833Z,101202.63
2022-09-25T08:17:19.914Z,101196.44
2022-09-25T08:19:46.417Z,101196.38
2022-09-25T08:22:13.002Z,101202.13
2022-09-25T08:24:39.460Z,101199.16
2022-09-25T08:27:07.666Z,101200.88
2022-09-25T08:29:34.298Z,101197.00
2022-09-25T08:32:01.543Z,101199.13
2022-09-25T08:34:40.445Z,101186.81
2022-09-25T08:37:08.279Z,101195.34
2022-09-25T08:39:34.689Z,101188.94
2022-09-25T08:42:01.900Z,101192.53
2022-09-25T08:45:02.549Z,101197.75
2022-09-25T08:47:49.015Z,101202.94
2022-09-25T08:50:26.019Z,101200.00
2022-09-25T08:53:04.748Z,101197.28
2022-09-25T08:55:53.096Z,101194.47
2022-09-25T08:58:34.095Z,101194.00
2022-09-25T09:01:08.521Z,101201.53
2022-09-25T09:03:41.763Z,101197.59
2022-09-25T09:06:12.668Z,101206.44
2022-09-25T09:08:40.257Z,101217.97
2022-09-25T09:11:25.924Z,101197.63
2022-09-25T09:14:03.981Z,101208.69
2022-09-25T09:16:35.185Z,101216.34
2022-09-25T09:19:03.488Z,101209.13
2022-09-25T09:22:00.875Z,101200.91
2022-09-25T09:24:55.011Z,101213.16
2022-09-25T09:27:52.584Z,101199.66
2022-09-25T09:30:23.022Z,101212.41
2022-09-25T09:33:15.668Z,101207.19
2022-09-25T09:36:14.555Z,101201.22
2022-09-25T09:38:44.206Z,101205.53
2022-09-25T09:41:55.605Z,101206.31
2022-09-25T09:44:40.634Z,101205.81
2022-09-25T09:47:39.298Z,101209.75
2022-09-25T09:50:11.760Z,101199.41
2022-09-25T09:52:40.181Z,101198.34
2022-09-25T09:55:15.558Z,101218.56
2022-09-25T09:57:54.249Z,101217.69
2022-09-25T10:00:22.770Z,101212.31
2022-09-25T10:03:01.581Z,101210.47
2022-09-25T10:05:33.089Z,101210.78
2022-09-25T10:07:59.893Z,101206.50
2022-09-25T10:10:40.558Z,101212.94
2022-09-25T10:13:15.197Z,101189.84
2022-09-25T10:16:05.263Z,101188.69
2022-09-25T10:18:37.470Z,101186.50
2022-09-25T10:21:10.375Z,101196.91
2022-09-25T10:23:54.104Z,101189.75
2022-09-25T10:26:30.790Z,101178.50
2022-09-25T10:28:59.539Z,101187.66
2022-09-25T10:31:29.203Z,101181.72
2022-09-25T10:34:03.079Z,101182.69
2022-09-25T10:36:41.012Z,101194.09
2022-09-25T10:39:49.036Z,101182.88
2022-09-25T10:43:01.702Z,101180.97
2022-09-25T10:45:33.970Z,101191.38
2022-09-25T10:48:19.336Z,101182.63
2022-09-25T10:51:05.635Z,101190.84
2022-09-25T10:53:32.043Z,101181.91
2022-09-25T10:56:05.925Z,101178.03
2022-09-25T10:58:37.140Z,101191.00
2022-09-25T11:01:05.015Z,101178.81
2022-09-25T11:03:34.379Z,101187.94
2022-09-25T11:06:05.424Z,101181.44
2022-09-25T11:08:37.885Z,101196.19
2022-09-25T11:11:27.575Z,101184.22
2022-09-25T11:13:56.783Z,101189.69
2022-09-25T11:16:42.057Z,101192.53
2022-09-25T11:19:13.298Z,101202.38
2022-09-25T11:22:00.006Z,101183.09
2022-09-25T11:24:42.713Z,101191.00
2022-09-25T11:27:31.281Z,101186.38
2022-09-25T11:30:06.191Z,101195.19
2022-09-25T11:32:58.925Z,101201.44
2022-09-25T11:35:34.867Z,101196.41
2022-09-25T11:38:49.484Z,101199.69
2022-09-25T11:41:30.135Z,101199.53
2022-09-25T11:44:24.039Z,101199.56
2022-09-25T11:47:01.277Z,101202.38
2022-09-25T11:49:31.300Z,101190.41
2022-09-25T11:52:06.462Z,101193.38
2022-09-25T11:54:54.605Z,101190.09
2022-09-25T11:57:34.218Z,101188.69
2022-09-25T12:00:04.825Z,101177.56
2022-09-25T12:02:53.470Z,101183.00
2022-09-25T12:05:45.317Z,101170.25
2022-09-25T12:08:23.360Z,101171.75
2022-09-25T12:11:14.692Z,101171.41
2022-09-25T12:14:04.906Z,101170.25
2022-09-25T12:16:43.183Z,101173.13
2022-09-25T12:19:23.599Z,101163.16
2022-09-25T12:22:14.739Z,101160.84
2022-09-25T12:25:04.027Z,101161.47
2022-09-25T12:27:33.359Z,101151.81
2022-09-25T12:30:25.223Z,101151.41
2022-09-25T12:33:27.962Z,101151.69
2022-09-25T12:36:03.637Z,101136.53
2022-09-25T12:38:36.764Z,101138.53
2022-09-25T12:41:10.430Z,101138.75
2022-09-25T12:43:48.699Z,101133.75
2022-09-25T12:46:20.586Z,101134.19
2022-09-25T12:48:55.655Z,101121.72
2022-09-25T12:51:42.731Z,101128.78
2022-09-25T12:54:28.192Z,101127.47
2022-09-25T12:57:08.984Z,101125.06
2022-09-25T12:59:49.296Z,101126.81
2022-09-25T13:02:24.667Z,101123.56
2022-09-25T13:04:59.278Z,101117.91
2022-09-25T13:07:31.698Z,101120.81
2022-09-25T13:09:58.131Z,101116.41
2022-09-25T13:12:33.253Z,101112.06
2022-09-25T13:15:08.767Z,101110.88
2022-09-25T13:17:36.647Z,101111.53
2022-09-25T13:20:31.847Z,101114.25
2022-09-25T13:23:03.053Z,101111.25
2022-09-25T13:25:29.979Z,101105.47
2022-09-25T13:27:57.574Z,101102.25
2022-09-25T13:30:27.966Z,101091.94
2022-09-25T13:32:56.403Z,101095.16
2022-09-25T13:35:23.867Z,101098.03
2022-09-25T13:37:51.553Z,101105.88
2022-09-25T13:40:39.137Z,101096.72
2022-09-25T13:43:24.280Z,101097.53
2022-09-25T13:46:23.681Z,101094.66
2022-09-25T13:48:55.362Z,101103.41
2022-09-25T13:51:21.672Z,101108.44
2022-09-25T13:54:00.120Z,101110.13
2022-09-25T13:56:33.913Z,101098.88
2022-09-25T13:59:03.244Z,101096.34
2022-09-25T14:01:34.595Z,101095.13
2022-09-25T14:04:01.440Z,101101.16
2022-09-25T14:06:35.682Z,101088.13
2022-09-25T14:09:14.698Z,101083.56
2022-09-25T14:11:52.355Z,101087.66
2022-09-25T14:14:27.197Z,101089.59
2022-09-25T14:16:56.407Z,101081.78
2022-09-25T14:19:35.259Z,101085.47
2022-09-25T14:22:03.346Z,101081.53
2022-09-25T14:24:30.818Z,101077.88
2022-09-25T14:27:01.369Z,101077.50
2022-09-25T14:29:31.914Z,101068.75
2022-09-25T14:32:50.213Z,101067.81
2022-09-25T14:35:19.319Z,101064.00
2022-09-25T14:38:00.616Z,101055.84
2022-09-25T14:40:35.343Z,101059.81
2022-09-25T14:43:20.514Z,101052.06
2022-09-25T14:46:04.424Z,101050.75
2022-09-25T14:48:41.851Z,101046.31
2022-09-25T14:51:15.952Z,101035.16
2022-09-25T14:53:46.087Z,101033.22
2022-09-25T14:56:14.717Z,101041.41
2022-09-25T14:58:49.462Z,101037.69
2022-09-25T15:01:27.686Z,101026.56
2022-09-25T15:04:05.630Z,101039.56
2022-09-25T15:06:34.947Z,101042.75
2022-09-25T15:09:02.882Z,101022.84
2022-09-25T15:11:43.055Z,101033.41
2022-09-25T15:14:17.730Z,101039.06
2022-09-25T15:17:03.068Z,101033.50
2022-09-25T15:19:33.109Z,101029.69
2022-09-25T15:21:59.734Z,101034.59
2022-09-25T15:24:31.805Z,101027.34
2022-09-25T15:27:03.731Z,101030.84
2022-09-25T15:29:35.110Z,101027.75
2022-09-25T15:32:01.725Z,101025.31
2022-09-25T15:34:33.166Z,101022.28
2022-09-25T15:37:22.246Z,101014.66
2022-09-25T15:39:48.663Z,101012.44
2022-09-25T15:42:15.222Z,101016.06
2022-09-25T15:44:41.909Z,101014.41
2022-09-25T15:47:34.352Z,101020.38
2022-09-25T15:50:02.069Z,101014.50
2022-09-25T15:52:33.868Z,101003.78
2022-09-25T15:55:02.639Z,101008.47
2022-09-25T15:57:30.706Z,101006.44
2022-09-25T16:00:17.284Z,101009.22
2022-09-25T16:03:19.813Z,101008.06
2022-09-25T16:05:48.470Z,101001.47
2022-09-25T16:08:30.007Z,101006.41
2022-09-25T16:11:26.529Z,101017.63
2022-09-25T16:13:55.069Z,101012.34
2022-09-25T16:16:29.430Z,101012.56
2022-09-25T16:18:57.264Z,101017.34
2022-09-25T16:21:31.890Z,101016.28
2022-09-25T16:24:03.849Z,101020.00
2022-09-25T16:26:38.737Z,101005.13
2022-09-25T16:29:23.733Z,101018.66
2022-09-25T16:31:54.282Z,101000.41
2022-09-25T16:34:26.134Z,101016.63
2022-09-25T16:36:54.662Z,101013.75
2022-09-25T16:39:33.310Z,101016.78
2022-09-25T16:42:00.162Z,101012.00
2022-09-25T16:44:32.627Z,101013.50
2022-09-25T16:46:58.924Z,101010.81
2022-09-25T16:49:25.437Z,101012.88
2022-09-25T16:51:53.913Z,101004.91
2022-09-25T16:54:21.566Z,101010.28
2022-09-25T16:56:48.791Z,101013.75
2022-09-25T16:59:22.162Z,101006.56
2022-09-25T17:01:55.846Z,101007.16
2022-09-25T17:04:24.746Z,101006.00
2022-09-25T17:06:51.136Z,101002.81
2022-09-25T17:09:18.263Z,101003.16
2022-09-25T17:11:46.813Z,101000.78
2022-09-25T17:14:23.091Z,101004.81
2022-09-25T17:16:50.853Z,101002.44
2022-09-25T17:19:19.074Z,101002.09
2022-09-25T17:21:50.138Z,100997.31
2022-09-25T17:24:18.198Z,100996.16
2022-09-25T17:26:45.100Z,100997.34
2022-09-25T17:29:11.595Z,100999.75
2022-09-25T17:31:38.123Z,100997.03
2022-09-25T17:34:24.851Z,100995.56
2022-09-25T17:36:54.709Z,100986.13
2022-09-25T17:39:21.305Z,100987.63
2022-09-25T17:41:47.860Z,100993.75
2022-09-25T17:44:18.950Z,100993.72
2022-09-25T17:46:46.428Z,100993.41
2022-09-25T17:49:12.929Z,100994.44
2022-09-25T17:51:39.576Z,100990.72
2022-09-25T17:54:06.662Z,100982.91
2022-09-25T17:56:37.699Z,100988.00
2022-09-25T17:59:05.674Z,100984.06
2022-09-25T18:01:38.389Z,100982.09
2022-09-25T18:04:33.108Z,100978.84
2022-09-25T18:07:00.114Z,100972.63
2022-09-25T18:09:26.515Z,100976.03
2022-09-25T18:11:53.132Z,100985.84
2022-09-25T18:14:19.537Z,100978.91
2022-09-25T18:16:46.045Z,100978.81
2022-09-25T18:19:36.118Z,100979.25
2022-09-25T18:22:18.755Z,100972.34
2022-09-25T18:24:52.615Z,100972.25
2022-09-25T18:27:19.205Z,100970.34
2022-09-25T18:29:47.409Z,100967.38
2022-09-25T18:32:14.266Z,100964.06
2022-09-25T18:34:41.615Z,100964.94
2022-09-25T18:37:08.212Z,100968.50
2022-09-25T18:39:34.810Z,100960.34
2022-09-25T18:42:01.225Z,100956.47
2022-09-25T18:44:28.867Z,100953.38
2022-09-25T18:46:55.742Z,100953.72
2022-09-25T18:49:22.875Z,100953.72
2022-09-25T18:51:49.261Z,100943.41
2022-09-25T18:54:16.122Z,100942.00
2022-09-25T18:56:42.858Z,100945.00
2022-09-25T18:59:09.293Z,100928.72
2022-09-25T19:01:36.148Z,100937.22
2022-09-25T19:04:03.431Z,100930.75
2022-09-25T19:06:29.849Z,100938.47
2022-09-25T19:08:57.299Z,100929.97
2022-09-25T19:11:25.180Z,100927.09
2022-09-25T19:13:51.598Z,100922.28
2022-09-25T19:16:18.683Z,100923.16
2022-09-25T19:18:45.310Z,100920.53
2022-09-25T19:21:16.251Z,100915.50
2022-09-25T19:23:43.608Z,100906.81
2022-09-25T19:26:15.015Z,100907.56
2022-09-25T19:28:42.009Z,100902.28
2022-09-25T19:31:13.918Z,100900.09
2022-09-25T19:33:40.426Z,100901.59
2022-09-25T19:36:10.031Z,100892.59
2022-09-25T19:38:38.032Z,100893.75
2022-09-25T19:41:13.421Z,100897.69
2022-09-25T19:43:39.838Z,100890.81
2022-09-25T19:46:06.872Z,100889.72
2022-09-25T19:48:33.492Z,100887.19
2022-09-25T19:50:59.976Z,100883.19
2022-09-25T19:53:26.385Z,100899.13
2022-09-25T19:55:54.084Z,100888.34
2022-09-25T19:58:23.650Z,100890.56
2022-09-25T20:00:50.688Z,100881.50
2022-09-25T20:03:17.386Z,100872.59
2022-09-25T20:05:44.698Z,100866.06
2022-09-25T20:08:11.506Z,100868.06
2022-09-25T20:10:38.252Z,100866.91
2022-09-25T20:13:06.131Z,100865.22
2022-09-25T20:15:33.794Z,100868.81
2022-09-25T20:18:00.333Z,100867.91
2022-09-25T20:20:28.428Z,100865.66
2022-09-25T20:22:58.205Z,100874.50
2022-09-25T20:25:27.954Z,100865.81
2022-09-25T20:27:54.447Z,100861.97
2022-09-25T20:30:21.920Z,100859.88
2022-09-25T20:32:48.319Z,100860.13
2022-09-25T20:35:14.735Z,100851.28
2022-09-25T20:37:44.780Z,100851.97
2022-09-25T20:40:11.282Z,100857.47
2022-09-25T20:42:37.722Z,100850.63
2022-09-25T20:45:04.721Z,100842.25
2022-09-25T20:47:33.364Z,100835.59
2022-09-25T20:50:00.814Z,100841.25
2022-09-25T20:52:27.825Z,100851.13
2022-09-25T20:54:54.259Z,100843.63
2022-09-25T20:57:20.667Z,100845.94
2022-09-25T20:59:47.108Z,100843.19
2022-09-25T21:02:13.816Z,100844.53
2022-09-25T21:04:40.332Z,100843.56
2022-09-25T21:07:06.713Z,100848.13
2022-09-25T21:09:33.115Z,100849.81
2022-09-25T21:11:59.905Z,100846.63
2022-09-25T21:14:27.924Z,100846.47
2022-09-25T21:16:57.901Z,100839.94
2022-09-25T21:19:24.473Z,100847.97
2022-09-25T21:21:51.040Z,100836.25
2022-09-25T21:24:19.443Z,100828.91
2022-09-25T21:26:46.544Z,100822.47
2022-09-25T21:29:15.663Z,100815.28
2022-09-25T21:31:46.784Z,100814.03
2022-09-25T21:34:16.215Z,100815.72
2022-09-25T21:36:42.821Z,100806.00
2022-09-25T21:39:09.655Z,100816.53
2022-09-25T21:41:36.143Z,100815.47
2022-09-25T21:44:06.411Z,100803.69
2022-09-25T21:46:34.653Z,100800.97
2022-09-25T21:49:03.472Z,100805.56
2022-09-25T21:51:32.347Z,100796.44
2022-09-25T21:54:01.030Z,100797.84
2022-09-25T21:56:30.018Z,100804.09
2022-09-25T21:58:57.492Z,100791.16
2022-09-25T22:01:28.349Z,100793.69
2022-09-25T22:03:56.996Z,100780.66
2022-09-25T22:06:29.958Z,100788.22
2022-09-25T22:08:58.946Z,100782.41
2022-09-25T22:11:25.948Z,100781.31
2022-09-25T22:13:52.954Z,100780.50
2022-09-25T22:16:25.243Z,100785.84
2022-09-25T22:18:56.873Z,100775.53
2022-09-25T22:21:26.329Z,100776.38
2022-09-25T22:23:53.055Z,100778.63
2022-09-25T22:26:20.412Z,100770.28
2022-09-25T22:28:46.828Z,100764.13
2022-09-25T22:31:16.661Z,100761.63
2022-09-25T22:33:43.169Z,100759.78
2022-09-25T22:36:10.981Z,100754.59
2022-09-25T22:38:38.109Z,100749.66
2022-09-25T22:41:11.076Z,100752.25
2022-09-25T22:43:38.054Z,100747.06
2022-09-25T22:46:05.459Z,100754.41
2022-09-25T22:48:32.175Z,100757.41
2022-09-25T22:51:12.765Z,100749.81
2022-09-25T22:53:39.686Z,100745.53
2022-09-25T22:56:20.562Z,100736.66
2022-09-25T22:58:49.754Z,100738.16
2022-09-25T23:01:25.146Z,100734.59
2022-09-25T23:03:57.123Z,100727.09
2022-09-25T23:06:24.144Z,100720.88
2022-09-25T23:09:02.287Z,100723.25
2022-09-25T23:11:29.161Z,100711.66
2022-09-25T23:14:00.787Z,100707.72
2022-09-25T23:16:27.913Z,100711.50
2022-09-25T23:18:58.030Z,100712.88
2022-09-25T23:21:25.328Z,100700.19
2022-09-25T23:24:15.832Z,100704.59
2022-09-25T23:26:43.521Z,100702.88
2022-09-25T23:29:15.845Z,100694.88
2022-09-25T23:31:42.710Z,100692.47
2022-09-25T23:34:09.780Z,100694.53
2022-09-25T23:36:36.610Z,100685.66
2022-09-25T23:39:04.234Z,100683.50
2022-09-25T23:41:36.029Z,100667.91
2022-09-25T23:44:05.075Z,100665.88
2022-09-25T23:46:34.364Z,100661.47
2022-09-25T23:49:00.930Z,100655.56
2022-09-25T23:51:27.813Z,100651.09
2022-09-25T23:53:56.140Z,100643.06
2022-09-25T23:56:27.571Z,100637.91
2022-09-25T23:58:56.562Z,100624.53
